Ojai, California
Current Conditions -  °F | °C
As of 8:51 AM on Monday 22 Dec 2014 (Local Time) from KOXR Reporting Station
Clear Clear  
Wind Chill: 62°   Ceiling: Unl
Heat Index: 62°   Visibility: 10mi
Dew Point: 48°   Wind: 5mph
Humidity: 60%   Direction: 70°ENE
Pressure: 30.05"   Gusts: NA
Location:  34.44°N, 119.24°W
Report Text: KOXR 221651Z 07004KT 10SM CLR 17/09 A3005 RMK AO2 SLP173 T01670089
Loading
Personal Weather Stations






























Interactive Weather Map New forecast layout! Learn more

10-Day Weather Forecast

Advertisements
Track Severe Weather on mobile